Data for 09/23/2015

Time Sea-Level Adjusted Pressure Absolute Pressure Temperature Relative Humidity Dew Point   
(mb) (inHg) (mb) (inHg) (C) (F) (%) (C) (F)
00:05 1017 30.03 846 24.98 13.7 56.7 50 3.7 38.6
00:10 1017 30.03 846 24.98 13.6 56.5 50 3.4 38.1
00:15 1017 30.03 846 24.98 13.5 56.4 50 3.3 38
00:20 1017 30.03 846 24.98 13.3 56 49 2.9 37.2
00:25 1017 30.03 846 24.98 12.9 55.3 51 3.1 37.5
00:30 1017 30.03 846 24.98 12.8 55.1 49 2.6 36.6
00:35 1017 30.03 846 24.98 12.8 55 49 2.5 36.5
00:40 1017 30.03 846 24.98 13.1 55.6 50 3 37.5
00:45 1017 30.03 846 24.98 13.2 55.7 50 2.9 37.3
00:50 1017 30.03 846 24.98 13.4 56.2 49 2.9 37.3
00:55 1017 30.03 846 24.98 12.9 55.3 50 2.8 37
01:00 1017 30.03 846 24.98 11.8 53.2 52 2.4 36.3
01:05 1017 30.03 846 24.98 11.5 52.7 53 2.3 36.1
01:10 1017 30.03 847 25.01 11.4 52.5 53 2.2 36
01:15 1017 30.03 847 25.01 11.4 52.5 54 2.3 36.2
01:20 1017 30.03 847 25.01 11.1 52 55 2.5 36.5
01:25 1017 30.03 847 25.01 10.8 51.4 55 2.1 35.8
01:30 1018 30.06 847 25.01 11 51.8 52 1.7 35
01:35 1018 30.06 847 25.01 11.3 52.4 52 1.8 35.2
01:40 1018 30.06 847 25.01 11.3 52.4 52 1.8 35.3
01:45 1018 30.06 847 25.01 11.2 52.2 52 1.8 35.2
01:50 1018 30.06 847 25.01 11.4 52.5 51 1.8 35.2
01:55 1018 30.06 847 25.01 11.8 53.3 49 1.6 34.8
02:00 1018 30.06 847 25.01 11.9 53.4 50 1.8 35.3
02:05 1018 30.06 847 25.01 12.4 54.3 48 1.6 34.9
02:10 1018 30.06 847 25.01 12 53.7 50 2 35.7
02:15 1018 30.06 847 25.01 11.7 53 52 2.2 35.9
02:20 1018 30.06 847 25.01 11.5 52.6 54 2.6 36.6
02:25 1018 30.06 847 25.01 11 51.7 55 2.3 36.1
02:30 1018 30.06 847 25.01 11.1 51.9 54 2.2 35.9
02:35 1018 30.06 847 25.01 10.9 51.6 56 2.6 36.7
02:40 1018 30.06 847 25.01 10.7 51.2 58 2.7 36.9
02:45 1018 30.06 847 25.01 10.5 51 57 2.5 36.5
02:50 1018 30.06 847 25.01 10.7 51.3 56 2.3 36.2
02:55 1018 30.06 847 25.01 11 51.9 58 3 37.5
03:00 1018 30.06 847 25.01 10.9 51.6 57 2.8 37
03:05 1018 30.06 847 25.01 11.3 52.3 56 2.9 37.3
03:10 1018 30.06 847 25.01 10.9 51.5 59 3.3 38
03:15 1018 30.06 848 25.04 10.4 50.7 62 3.4 38
03:20 1018 30.06 848 25.04 10.3 50.5 62 3.3 37.9
03:25 1018 30.06 848 25.04 10.1 50.3 63 3.5 38.3
03:30 1018 30.06 848 25.04 10.1 50.1 63 3.3 37.9
03:35 1018 30.06 848 25.04 10.4 50.6 62 3.4 38.1
03:40 1018 30.06 848 25.04 10.5 50.8 61 3.4 38
03:45 1018 30.06 848 25.04 10.8 51.4 60 3.3 38
03:50 1018 30.06 848 25.04 10.8 51.5 60 3.3 38
03:55 1018 30.06 848 25.04 10.8 51.4 60 3.3 37.9
04:00 1018 30.06 848 25.04 10.8 51.5 59 3.1 37.6
04:05 1018 30.06 848 25.04 10.9 51.7 59 3.4 38
04:10 1018 30.06 848 25.04 10.7 51.2 61 3.5 38.3
04:15 1018 30.06 848 25.04 10.3 50.5 63 3.5 38.3
04:20 1018 30.06 848 25.04 9.9 49.8 64 3.4 38.1
04:25 1018 30.06 848 25.04 10.1 50.3 62 3.2 37.8
04:30 1018 30.06 848 25.04 10.5 50.8 62 3.4 38.1
04:35 1018 30.06 848 25.04 10.4 50.7 62 3.4 38.1
04:40 1018 30.06 848 25.04 10.4 50.7 62 3.4 38.1
04:45 1018 30.06 848 25.04 10.4 50.7 62 3.5 38.3
04:50 1018 30.06 848 25.04 10.2 50.4 63 3.5 38.4
04:55 1018 30.06 848 25.04 10.1 50.2 63 3.4 38.2
05:00 1018 30.06 848 25.04 10.3 50.5 62 3.4 38.1
05:05 1018 30.06 848 25.04 10.5 50.9 62 3.5 38.3
05:10 1018 30.06 848 25.04 10.6 51.1 60 3.3 37.9
05:15 1018 30.06 848 25.04 11 51.8 59 3.4 38.2
05:20 1018 30.06 848 25.04 11.1 51.9 59 3.5 38.3
05:25 1018 30.06 848 25.04 11.1 52 59 3.4 38.1
05:30 1019 30.09 848 25.04 11.2 52.2 59 3.5 38.3
05:35 1019 30.09 848 25.04 11.1 51.9 60 3.6 38.5
05:40 1019 30.09 848 25.04 10.9 51.6 60 3.6 38.4
05:45 1019 30.09 848 25.04 10.8 51.4 61 3.6 38.5
05:50 1019 30.09 848 25.04 10.8 51.4 60 3.5 38.2
05:55 1019 30.09 848 25.04 11 51.7 60 3.6 38.5
06:00 1019 30.09 848 25.04 10.9 51.6 61 3.6 38.5
06:05 1019 30.09 848 25.04 10.9 51.6 60 3.6 38.5
06:10 1019 30.09 848 25.04 11 51.7 60 3.5 38.3
06:15 1019 30.09 848 25.04 11 51.8 60 3.6 38.4
06:20 1019 30.09 848 25.04 11.1 51.9 59 3.5 38.2
06:25 1019 30.09 849 25.07 11.1 51.9 58 3.1 37.5
06:30 1019 30.09 849 25.07 11 51.8 59 3.4 38.2
06:35 1019 30.09 849 25.07 10.8 51.4 60 3.3 38
06:40 1020 30.12 849 25.07 10.4 50.8 62 3.4 38.2
06:45 1020 30.12 849 25.07 10.2 50.3 61 3.1 37.6
06:50 1020 30.12 849 25.07 10.3 50.5 61 3 37.5
06:55 1020 30.12 849 25.07 10.3 50.5 61 3.2 37.7
07:00 1020 30.12 849 25.07 10 49.9 63 3.2 37.8
07:05 1020 30.12 849 25.07 9.7 49.5 64 3.2 37.8
07:10 1020 30.12 849 25.07 9.5 49.1 65 3.2 37.8
07:15 1020 30.12 849 25.07 10 50 61 3 37.3
07:20 1020 30.12 849 25.07 10.8 51.4 59 3.2 37.8
07:25 1020 30.12 849 25.07 11.2 52.1 58 3.3 38
07:30 1020 30.12 849 25.07 11.4 52.5 58 3.4 38
07:35 1020 30.12 849 25.07 11.5 52.8 58 3.6 38.5
07:40 1020 30.12 849 25.07 11.7 53.1 58 3.9 39.1
07:45 1020 30.12 849 25.07 11.9 53.5 57 3.7 38.6
07:50 1020 30.12 849 25.07 12.2 53.9 56 3.8 38.8
07:55 1020 30.12 849 25.07 12.6 54.7 55 3.8 38.9
08:00 1020 30.12 849 25.07 13 55.4 54 4.1 39.3
08:05 1020 30.12 849 25.07 13.4 56.1 53 4.1 39.4
08:10 1020 30.12 849 25.07 13.8 56.9 53 4.5 40.2
08:15 1020 30.12 849 25.07 14.1 57.3 52 4.5 40.1
08:20 1020 30.12 849 25.07 14.7 58.4 50 4.4 40
08:25 1020 30.12 849 25.07 15.4 59.8 48 4.7 40.4
08:30 1020 30.12 849 25.07 15.8 60.4 47 4.6 40.2
08:35 1020 30.12 850 25.1 15.8 60.5 46 4.4 39.9
08:40 1020 30.12 850 25.1 16.1 60.9 44 3.9 39
08:45 1020 30.12 850 25.1 16.2 61.1 43 3.8 38.9
08:50 1021 30.15 850 25.1 16.8 62.2 42 3.8 38.8
08:55 1020 30.12 850 25.1 17.4 63.2 40 3.7 38.7
09:00 1020 30.12 850 25.1 17.4 63.3 41 4.1 39.4
09:05 1020 30.12 850 25.1 17.4 63.4 40 3.9 38.9
09:10 1020 30.12 850 25.1 18.1 64.7 38 3.9 39
09:15 1021 30.15 850 25.1 18.1 64.6 38 3.9 39
09:20 1020 30.12 850 25.1 17.8 64.1 39 3.9 39
09:25 1020 30.12 850 25.1 18.2 64.8 37 3.6 38.5
09:30 1020 30.12 850 25.1 18.7 65.7 37 4 39.2
09:35 1020 30.12 850 25.1 19 66.2 37 4 39.2
09:40 1020 30.12 850 25.1 18.9 66 38 4.2 39.6
09:45 1020 30.12 850 25.1 18.8 65.8 38 4.4 39.9
09:50 1020 30.12 850 25.1 19.4 67 36 4.1 39.4
09:55 1020 30.12 850 25.1 19.9 67.9 34 3.9 39.1
10:00 1020 30.12 850 25.1 20.4 68.8 34 4.3 39.7
10:05 1020 30.12 849 25.07 20.6 69 34 4.2 39.6
10:10 1020 30.12 849 25.07 20.5 69 33 4 39.1
10:15 1020 30.12 849 25.07 20.5 69 34 4.1 39.5
10:20 1020 30.12 849 25.07 20.6 69.1 33 4.1 39.3
10:25 1020 30.12 849 25.07 21.1 70 32 4 39.3
10:30 1020 30.12 849 25.07 21.4 70.5 32 4.3 39.7
10:35 1020 30.12 849 25.07 21.5 70.7 32 4.2 39.6
10:40 1020 30.12 849 25.07 21.5 70.6 33 4.6 40.3
10:45 1020 30.12 849 25.07 21.1 70.1 33 4.6 40.2
10:50 1020 30.12 849 25.07 21.4 70.5 31 4 39.2
10:55 1020 30.12 849 25.07 22 71.7 31 4.4 39.9
11:00 1020 30.12 849 25.07 21.9 71.5 32 4.5 40.2
11:05 1020 30.12 849 25.07 22.5 72.5 31 4.7 40.4
11:10 1020 30.12 849 25.07 21.8 71.2 34 5.2 41.4
11:15 1020 30.12 849 25.07 21.4 70.4 32 4.2 39.6
11:20 1020 30.12 849 25.07 22 71.6 33 5 41
11:25 1020 30.12 849 25.07 21.7 71 31 3.8 38.9
11:30 1020 30.12 849 25.07 22.9 73.1 30 4.4 39.9
11:35 1020 30.12 849 25.07 22.7 72.8 30 4.6 40.3
11:40 1020 30.12 849 25.07 22.3 72.1 30 4.3 39.8
11:45 1020 30.12 849 25.07 23.4 74.2 29 4.7 40.4
11:50 1020 30.12 849 25.07 24 75.2 28 4.6 40.3
11:55 1020 30.12 849 25.07 24 75.3 29 5 41
12:00 1020 30.12 849 25.07 23.6 74.4 29 4.5 40.1
12:05 1020 30.12 849 25.07 23.3 74 29 4.6 40.3
12:10 1020 30.12 849 25.07 24.1 75.3 28 4.9 40.8
12:15 1020 30.12 849 25.07 23.4 74.1 28 4 39.2
12:20 1020 30.12 849 25.07 23.9 74.9 29 4.8 40.7
12:25 1019 30.09 849 25.07 23.9 75.1 29 4.9 40.9
12:30 1019 30.09 849 25.07 23.8 74.9 27 4.1 39.3
12:35 1019 30.09 849 25.07 24.2 75.6 25 3.2 37.8
12:40 1019 30.09 849 25.07 24.9 76.7 25 3.9 39.1
12:45 1019 30.09 848 25.04 24.3 75.7 27 4.1 39.3
12:50 1019 30.09 848 25.04 25 77.1 24 3.5 38.2
12:55 1019 30.09 848 25.04 25.9 78.6 23 3.7 38.6
13:00 1019 30.09 848 25.04 24.4 75.8 26 4.1 39.4
13:05 1019 30.09 848 25.04 24.7 76.5 23 2.2 36
13:10 1019 30.09 848 25.04 26 78.8 23 3.5 38.3
13:15 1019 30.09 848 25.04 26.2 79.2 21 2.5 36.6
13:20 1019 30.09 848 25.04 26.2 79.2 21 2.3 36.2
13:25 1019 30.09 848 25.04 26.5 79.6 21 2.3 36.2
13:30 1019 30.09 848 25.04 26.7 80 21 2.6 36.6
13:35 1019 30.09 848 25.04 26.4 79.5 21 2.5 36.5
13:40 1019 30.09 848 25.04 26 78.8 20 1.8 35.3
13:45 1019 30.09 848 25.04 26.7 80.1 18 0.6 33.1
13:50 1019 30.09 848 25.04 27.1 80.8 19 1.7 35.1
13:55 1019 30.09 848 25.04 27.5 81.5 17 0.4 32.8
14:00 1018 30.06 848 25.04 26.6 79.8 17 0.1 32.2
14:05 1018 30.06 848 25.04 26.9 80.3 15 -1.3 29.7
14:10 1018 30.06 848 25.04 27 80.7 15 -1.1 29.9
14:15 1018 30.06 848 25.04 26.8 80.2 16 -0.5 31
14:20 1018 30.06 848 25.04 27.3 81.2 15 -1.2 29.8
14:25 1018 30.06 847 25.01 26.8 80.2 16 -1.2 29.8
14:30 1018 30.06 847 25.01 27.2 81 15 -1.1 30.1
14:35 1018 30.06 847 25.01 27.3 81.1 15 -1.2 29.8
14:40 1018 30.06 847 25.01 27.6 81.6 16 -0.5 31.1
14:45 1018 30.06 847 25.01 27.5 81.4 16 -0.5 31.1
14:50 1018 30.06 847 25.01 27.7 81.8 15 -1.1 30
14:55 1018 30.06 847 25.01 28 82.4 15 -1 30.1
15:00 1018 30.06 847 25.01 27.6 81.7 15 -0.7 30.8
15:05 1018 30.06 847 25.01 28 82.3 15 -0.3 31.4
15:10 1018 30.06 847 25.01 27.5 81.5 16 -0.6 30.9
15:15 1018 30.06 847 25.01 27.5 81.6 15 -1.6 29.2
15:20 1018 30.06 847 25.01 28.2 82.7 14 -1.3 29.6
15:25 1018 30.06 847 25.01 28 82.4 15 -1.1 30.1
15:30 1018 30.06 847 25.01 27.8 82 16 -0.4 31.2
15:35 1018 30.06 847 25.01 27.5 81.4 15 -1 30.2
15:40 1018 30.06 847 25.01 26.7 80 17 -0.3 31.5
15:45 1018 30.06 847 25.01 27.1 80.8 15 -1.9 28.7
15:50 1018 30.06 847 25.01 27.2 81 15 -1.2 29.9
15:55 1018 30.06 847 25.01 26.2 79.2 15 -1.8 28.8
16:00 1018 30.06 847 25.01 25.9 78.7 16 -1.9 28.5
16:05 1018 30.06 847 25.01 27 80.5 15 -1.7 28.9
16:10 1018 30.06 847 25.01 26.2 79.1 15 -2.1 28.3
16:15 1018 30.06 847 25.01 26.4 79.4 15 -2.4 27.8
16:20 1018 30.06 847 25.01 26.3 79.4 15 -2 28.4
16:25 1018 30.06 847 25.01 26.5 79.7 15 -1.7 28.9
16:30 1018 30.06 847 25.01 26.1 78.9 15 -2 28.3
16:35 1018 30.06 847 25.01 26.2 79.1 15 -2 28.5
16:40 1018 30.06 847 25.01 26.1 79 18 0 32.1
16:45 1018 30.06 848 25.04 25.8 78.5 17 -1 30.2
16:50 1018 30.06 848 25.04 25.6 78.1 19 0.3 32.6
16:55 1018 30.06 848 25.04 25.7 78.3 18 0 32
17:00 1018 30.06 848 25.04 26.2 79.1 16 -1 30.2
17:05 1018 30.06 848 25.04 26 78.7 16 -1.4 29.6
17:10 1018 30.06 848 25.04 25.9 78.6 17 -0.8 30.6
17:15 1018 30.06 848 25.04 26 78.8 17 -0.7 30.7
17:20 1019 30.09 848 25.04 26.4 79.5 16 -1.5 29.2
17:25 1019 30.09 848 25.04 26.3 79.3 16 -1.3 29.7
17:30 1019 30.09 848 25.04 25.7 78.3 18 -0 32
17:35 1019 30.09 848 25.04 25.3 77.6 22 2.3 36.1
17:40 1019 30.09 848 25.04 24.7 76.5 27 4.9 40.7
17:45 1019 30.09 848 25.04 23.8 74.8 29 4.9 40.9
17:50 1019 30.09 848 25.04 23.2 73.7 32 5.8 42.4
17:55 1019 30.09 848 25.04 22.8 73 32 5.4 41.8
18:00 1019 30.09 848 25.04 22.5 72.5 32 5.2 41.4
18:05 1019 30.09 848 25.04 22 71.5 34 5.6 42
18:10 1019 30.09 848 25.04 21.3 70.4 36 6 42.7
18:15 1019 30.09 848 25.04 21.2 70.1 33 4.5 40.1
18:20 1019 30.09 848 25.04 21.1 69.9 35 5.3 41.5
18:25 1019 30.09 848 25.04 19.9 67.8 38 5.5 41.9
18:30 1019 30.09 848 25.04 19.2 66.6 39 5.1 41.1
18:35 1019 30.09 848 25.04 18.9 66.1 40 5.2 41.3
18:40 1019 30.09 848 25.04 18.5 65.4 41 5 41.1
18:45 1019 30.09 848 25.04 18.2 64.8 41 4.8 40.6
18:50 1019 30.09 848 25.04 18.2 64.7 41 4.8 40.6
18:55 1019 30.09 848 25.04 18 64.5 40 4.2 39.6
19:00 1019 30.09 848 25.04 18.1 64.5 40 4.2 39.6
19:05 1019 30.09 848 25.04 18 64.4 39 4.1 39.3
19:10 1019 30.09 848 25.04 17.7 63.8 41 4.3 39.8
19:15 1019 30.09 848 25.04 17.6 63.7 37 2.8 37
19:20 1019 30.09 848 25.04 17.8 64 34 2.1 35.7
19:25 1019 30.09 848 25.04 18.1 64.7 35 2.5 36.4
19:30 1019 30.09 849 25.07 18.4 65.1 33 2.1 35.8
19:35 1019 30.09 849 25.07 18.6 65.5 33 2.3 36.1
19:40 1019 30.09 849 25.07 18.5 65.3 34 2.6 36.7
19:45 1019 30.09 849 25.07 18.3 64.9 34 2.2 35.9
19:50 1020 30.12 849 25.07 18 64.3 35 2.3 36.2
19:55 1020 30.12 849 25.07 17.8 64.1 34 1.7 35.1
20:00 1020 30.12 849 25.07 17.9 64.2 33 1.7 35.1
20:05 1020 30.12 849 25.07 17.9 64.2 33 1.6 34.8
20:10 1020 30.12 849 25.07 17.8 64.1 34 1.8 35.2
20:15 1020 30.12 849 25.07 17.9 64.1 33 1.6 34.8
20:20 1020 30.12 849 25.07 17.7 63.9 33 1.3 34.4
20:25 1020 30.12 849 25.07 17.8 64 33 1.6 34.9
20:30 1020 30.12 849 25.07 17.7 63.9 33 1.5 34.8
20:35 1020 30.12 849 25.07 17.6 63.7 33 1.5 34.7
20:40 1020 30.12 849 25.07 17.6 63.6 34 1.8 35.3
20:45 1020 30.12 849 25.07 17.5 63.4 33 1.2 34.2
20:50 1020 30.12 849 25.07 17.7 63.8 32 0.9 33.7
20:55 1020 30.12 849 25.07 17.9 64.2 32 0.9 33.6
21:00 1020 30.12 849 25.07 17.9 64.2 32 1.2 34.1
21:05 1020 30.12 849 25.07 17.8 64.1 31 0.8 33.4
21:10 1020 30.12 849 25.07 17.9 64.2 32 0.9 33.6
21:15 1020 30.12 849 25.07 17.8 64 32 1.2 34.2
21:20 1020 30.12 849 25.07 17.9 64.1 31 0.7 33.2
21:25 1020 30.12 849 25.07 18.3 65 30 0.6 33
21:30 1020 30.12 849 25.07 18.2 64.7 30 0.7 33.2
21:35 1020 30.12 849 25.07 18.1 64.5 30 0.6 33
21:40 1020 30.12 849 25.07 17.9 64.2 30 0.3 32.5
21:45 1020 30.12 849 25.07 17.9 64.3 32 1.1 34.1
21:50 1020 30.12 850 25.1 17 62.6 36 2 35.5
21:55 1020 30.12 850 25.1 16.6 61.9 34 0.7 33.3
22:00 1021 30.15 850 25.1 16.8 62.3 36 1.7 35
22:05 1021 30.15 850 25.1 16.6 61.8 37 2.1 35.7
22:10 1021 30.15 850 25.1 16.2 61.1 39 2.4 36.3
22:15 1021 30.15 850 25.1 16 60.7 40 2.4 36.3
22:20 1021 30.15 850 25.1 16.1 60.9 37 1.5 34.6
22:25 1021 30.15 850 25.1 15.9 60.5 39 2 35.6
22:30 1021 30.15 850 25.1 15.3 59.5 41 2.3 36.1
22:35 1021 30.15 850 25.1 14.8 58.6 41 1.9 35.4
22:40 1021 30.15 850 25.1 15.2 59.3 39 1.3 34.4
22:45 1021 30.15 850 25.1 15.9 60.6 38 1.6 34.9
22:50 1021 30.15 851 25.13 15.8 60.5 37 1.2 34.2
22:55 1021 30.15 851 25.13 15.8 60.5 36 0.9 33.6
23:00 1021 30.15 851 25.13 16 60.8 32 -0.4 31.4
23:05 1021 30.15 851 25.13 16.9 62.4 31 -0.2 31.6
23:10 1021 30.15 851 25.13 17.1 62.8 32 0.3 32.5
23:15 1022 30.18 851 25.13 16 60.9 36 0.9 33.7
23:20 1022 30.18 851 25.13 15.5 60 35 0.3 32.5
23:25 1022 30.18 851 25.13 15.5 59.8 37 0.8 33.5
23:30 1022 30.18 851 25.13 14.5 58.1 39 0.8 33.5
23:35 1022 30.18 851 25.13 14.8 58.6 34 -1 30.3
23:40 1022 30.18 851 25.13 15.3 59.5 35 0 32
23:45 1022 30.18 851 25.13 15 59 36 0.2 32.4
23:50 1022 30.18 851 25.13 14.4 57.9 39 0.8 33.4
23:55 1022 30.18 851 25.13 14 57.3 39 0.3 32.5
24:00 1022 30.18 851 25.13 14.6 58.2 35 -0.8 30.6